Estación Meteorológica Peña el Pijo (Robertgarden) [ 09/26/18 04:19:12 CEST ]

Fecha Hora Presion(HPa) Temp (°C) Humedad % Rocio (°C) Viento ( m/s) Direccion Lluvia 1Hora(mm) Lluvia 24H(mm) LLuvia Total(mm)
2018-Sep-22 01:01:44 1015.500 15.3 76 11.1         354.31
2018-Sep-22 02:01:57 1015.400 14.7 78 10.9         354.31
2018-Sep-22 03:01:40 1015.300 13.9 79 10.3         354.31
2018-Sep-22 04:01:42 1015.100 13.6 81 10.4         354.31
2018-Sep-22 05:04:07 1015.100 12.9 82 9.9         354.31
2018-Sep-22 06:01:51 1015.200 12.6 84 9.9         354.31
2018-Sep-22 07:01:43 1015.600 12.2 84 9.6         354.31
2018-Sep-22 08:01:55 1016.100 12.2 85 9.7         354.31
2018-Sep-22 09:01:37 1016.400 13.3 87 11.2         354.31
2018-Sep-22 10:01:37 1016.600 19.9 80 16.4         354.31
2018-Sep-22 11:02:05 1016.900 26.3 57 17.1         354.31
2018-Sep-22 12:01:43 1017.000 31.3 38 15.2         354.31
2018-Sep-22 13:01:52 1017.000 31.6 31 12.4         354.31
2018-Sep-22 14:01:58 1016.600 30.9 32 12.2         354.31
2018-Sep-22 15:01:56 1016.200 32.5 29 12.1         354.31
2018-Sep-22 16:01:50 1016.100 31.9 32 13.1         354.31
2018-Sep-22 17:01:53 1015.800 32.4 31 13.1         354.31
2018-Sep-22 18:01:34 1015.500 29.9 31 10.9         354.31
2018-Sep-22 19:01:46 1015.800 27.5 35 10.6         354.31
2018-Sep-22 20:01:41 1016.200 24.6 43 11.2         354.31
2018-Sep-22 21:01:35 1016.900 20.9 52 10.7         354.31
2018-Sep-22 22:01:56 1017.600 18.8 61 11.1         354.31
2018-Sep-22 23:01:38 1017.800 16.9 68 10.9         354.31

Temperatura Máxima:32°    Temperatura Mínima:12°
Presión Máxima:1017.800 Hpa    Presión Mínima:1015.100 Hpa


Volver